Time;durP1;ratioP1;P1;durP2;ratioP2;P2;SDS_P1;SDS_P2;PMS_P1;PMS_P2;Temp;Humidity;BMP_temperature;BMP_pressure;BME280_temperature;BME280_humidity;BME280_pressure;Samples;Min_cycle;Max_cycle;Signal;HPM_P1;HPM_P2
2022/01/12 00:01:22;;;;;;;12.20;6.92;;;;;;;-3.48;62.65;102686.85;1712900;83;25745;-64
2022/01/12 00:03:49;;;;;;;13.05;7.35;;;;;;;-3.49;62.69;102694.72;1691873;84;25828;-64
2022/01/12 00:06:16;;;;;;;10.75;6.05;;;;;;;-3.46;62.50;102697.37;1691922;84;28369;-63
2022/01/12 00:08:43;;;;;;;13.98;6.22;;;;;;;-3.44;61.72;102696.05;1692002;84;25697;-64
2022/01/12 00:11:10;;;;;;;10.38;6.25;;;;;;;-3.48;61.24;102694.75;1691970;83;25486;-63
2022/01/12 00:13:38;;;;;;;10.32;5.42;;;;;;;-3.44;60.51;102698.25;1691815;83;25861;-63
2022/01/12 00:16:06;;;;;;;12.28;6.00;;;;;;;-3.46;59.84;102698.27;1692270;83;25859;-64
2022/01/12 00:18:34;;;;;;;10.85;4.78;;;;;;;-3.46;59.48;102706.16;1691917;84;27462;-63
2022/01/12 00:21:03;;;;;;;11.35;5.22;;;;;;;-3.44;59.32;102698.67;1691747;84;26576;-64
2022/01/12 00:23:30;;;;;;;10.32;6.62;;;;;;;-3.44;59.40;102696.05;1691953;83;25539;-64
2022/01/12 00:26:02;;;;;;;8.20;5.35;;;;;;;-3.49;58.53;102702.61;1691754;84;26464;-64
2022/01/12 00:34:02;;;;;;;11.63;5.10;;;;;;;-3.50;57.76;102703.06;1691724;83;25825;-63
2022/01/12 00:36:31;;;;;;;14.05;5.42;;;;;;;-3.49;56.50;102700.88;1713157;81;25830;-64
2022/01/12 00:38:59;;;;;;;12.45;5.55;;;;;;;-3.53;56.65;102699.56;1736206;81;26422;-63
2022/01/12 00:41:27;;;;;;;13.20;5.75;;;;;;;-3.58;56.73;102699.55;1731137;81;25762;-65
2022/01/12 00:43:58;;;;;;;12.05;5.28;;;;;;;-3.59;56.53;102697.80;1749848;81;27426;-64
2022/01/12 00:46:28;;;;;;;10.45;5.60;;;;;;;-3.56;55.61;102692.55;1743688;82;25771;-62
2022/01/12 00:48:58;;;;;;;7.90;4.95;;;;;;;-3.57;56.07;102695.16;1743622;80;25683;-65
2022/01/12 00:51:31;;;;;;;7.83;4.33;;;;;;;-3.59;56.02;102695.16;1743942;82;25782;-64
2022/01/12 00:53:59;;;;;;;8.63;4.47;;;;;;;-3.65;55.08;102693.39;1744392;82;25794;-63
2022/01/12 00:56:28;;;;;;;9.73;5.17;;;;;;;-3.70;55.44;102708.30;1744055;82;28304;-64
2022/01/12 00:58:55;;;;;;;8.25;4.08;;;;;;;-3.74;55.46;102702.58;1742867;82;25696;-64
2022/01/12 01:01:23;;;;;;;9.95;3.65;;;;;;;-3.76;54.40;102699.06;1744020;82;25739;-64
2022/01/12 01:03:51;;;;;;;9.10;4.75;;;;;;;-3.79;54.18;102699.94;1744147;82;25756;-63
2022/01/12 01:06:20;;;;;;;8.43;4.60;;;;;;;-3.81;54.35;102701.68;1743998;82;25433;-64
2022/01/12 01:08:52;;;;;;;9.50;5.15;;;;;;;-3.84;54.59;102700.38;1744165;82;27434;-64
2022/01/12 01:11:23;;;;;;;9.10;4.70;;;;;;;-3.85;54.74;102689.83;1744043;82;33177;-64
2022/01/12 01:13:58;;;;;;;7.25;4.50;;;;;;;-3.86;54.04;102699.48;1743532;82;25763;-64
2022/01/12 01:16:44;;;;;;;10.08;5.58;;;;;;;-3.85;53.77;102699.94;1743995;81;25808;-64
2022/01/12 01:27:15;;;;;;;10.13;5.42;;;;;;;-3.85;55.23;102697.72;1744061;82;25739;-63
2022/01/12 01:29:43;;;;;;;9.33;5.15;;;;;;;-3.85;55.41;102702.56;1743915;81;25874;-63
2022/01/12 01:32:12;;;;;;;10.80;5.33;;;;;;;-3.89;55.44;102698.16;1744260;80;25714;-63
2022/01/12 01:34:46;;;;;;;9.83;5.83;;;;;;;-3.93;55.52;102712.19;1744075;82;27459;-63
2022/01/12 01:37:13;;;;;;;10.93;5.50;;;;;;;-4.03;55.29;102715.20;1718641;82;25836;-63
2022/01/12 01:39:40;;;;;;;11.35;5.53;;;;;;;-4.04;55.89;102706.90;1709856;83;25835;-63
2022/01/12 01:42:24;;;;;;;14.75;5.08;;;;;;;-4.02;55.88;102709.07;1747498;80;26566;-63
2022/01/12 01:55:27;;;;;;;14.23;6.55;;;;;;;-4.01;57.10;102710.83;1787768;80;26599;-63
2022/01/12 01:57:56;;;;;;;10.60;6.00;;;;;;;-4.10;57.37;102720.00;1781454;80;25828;-63
2022/01/12 02:00:27;;;;;;;13.70;7.00;;;;;;;-4.26;57.51;102710.74;1781714;80;28282;-62
2022/01/12 02:02:57;;;;;;;11.38;5.92;;;;;;;-4.36;57.91;102710.70;1781338;79;25932;-64
2022/01/12 02:05:26;;;;;;;13.05;6.90;;;;;;;-4.45;58.11;102718.08;1780535;80;25784;-63
2022/01/12 02:08:01;;;;;;;14.40;6.67;;;;;;;-4.50;58.32;102725.94;1781652;79;25870;-63
2022/01/12 02:10:32;;;;;;;12.53;7.45;;;;;;;-4.55;58.32;102731.61;1760167;80;25789;-64
2022/01/12 02:13:02;;;;;;;17.60;7.47;;;;;;;-4.62;58.45;102718.88;1781518;79;27460;-63
2022/01/12 02:15:33;;;;;;;14.95;8.08;;;;;;;-4.65;58.62;102729.34;1781470;80;25710;-64
2022/01/12 02:39:44;;;;;;;16.15;6.80;;;;;;;-5.09;60.57;102748.27;1763372;80;25715;-63
2022/01/12 02:39:56;;;;;;;15.75;6.85;;;;;;;-5.10;60.58;102752.66;1745487;81;27476;-61
2022/01/12 02:42:21;;;;;;;13.80;7.08;;;;;;;-5.12;60.65;102758.31;1706480;82;25549;-63
2022/01/12 02:55:50;;;;;;;17.73;8.45;;;;;;;-5.24;61.21;102760.41;1744650;82;25798;-65
2022/01/12 02:58:17;;;;;;;18.40;7.78;;;;;;;-5.27;61.26;102759.50;1743818;82;25742;-65
2022/01/12 03:03:33;;;;;;;16.62;7.90;;;;;;;-5.32;61.35;102763.80;1744166;82;25977;-64
2022/01/12 03:06:02;;;;;;;16.95;8.10;;;;;;;-5.31;61.48;102769.09;1743829;81;27508;-63
2022/01/12 03:08:36;;;;;;;13.43;5.75;;;;;;;-5.31;61.47;102768.19;1743623;81;25656;-63
2022/01/12 03:10:57;;;;;;;15.70;7.12;;;;;;;-5.33;61.44;102762.94;1743317;81;25802;-63
2022/01/12 03:13:24;;;;;;;14.58;7.65;;;;;;;-5.41;61.31;102772.03;1744112;82;25684;-63
2022/01/12 03:15:52;;;;;;;13.85;6.62;;;;;;;-5.45;61.46;102774.19;1743898;82;25711;-64
2022/01/12 03:18:20;;;;;;;11.70;7.50;;;;;;;-5.48;61.34;102774.14;1743982;81;27423;-64
2022/01/12 03:20:48;;;;;;;14.15;6.10;;;;;;;-5.58;61.07;102786.70;1743601;82;25727;-64
2022/01/12 03:23:16;;;;;;;13.45;6.80;;;;;;;-5.63;60.98;102778.79;1743959;82;25764;-64
2022/01/12 03:25:46;;;;;;;9.05;5.60;;;;;;;-5.69;61.07;102788.77;1743839;82;25882;-63
2022/01/12 03:28:12;;;;;;;12.33;6.45;;;;;;;-5.71;60.84;102785.69;1744117;82;25703;-63
2022/01/12 03:30:55;;;;;;;20.77;6.72;;;;;;;-5.75;60.92;102799.64;1743837;82;27543;-64
2022/01/12 03:33:34;;;;;;;18.73;6.83;;;;;;;-5.81;60.77;102801.31;1743436;81;25802;-63
2022/01/12 03:35:50;;;;;;;11.88;6.37;;;;;;;-5.85;60.85;102798.22;1742179;81;25655;-63
2022/01/12 03:38:21;;;;;;;12.78;5.75;;;;;;;-5.86;60.82;102796.86;1737720;81;27840;-63
2022/01/12 03:40:50;;;;;;;9.88;5.40;;;;;;;-5.88;60.51;102797.30;1703461;83;25753;-64
2022/01/12 03:43:18;;;;;;;13.18;5.22;;;;;;;-5.98;59.99;102797.18;1701155;82;27465;-63
2022/01/12 03:45:52;;;;;;;12.18;5.17;;;;;;;-6.09;59.66;102796.59;1733790;81;25740;-63
2022/01/12 03:48:19;;;;;;;;;;;;;;;-6.15;60.01;102802.66;1734264;82;25821;-63
2022/01/12 03:50:48;;;;;;;12.55;5.40;;;;;;;-6.23;60.01;102810.84;1765039;80;25836;-64
2022/01/12 03:53:16;;;;;;;10.95;5.08;;;;;;;-6.32;60.42;102815.06;1782073;79;26183;-63
2022/01/12 03:55:44;;;;;;;10.38;4.50;;;;;;;-6.39;60.54;102821.08;1781396;80;27431;-64
2022/01/12 03:58:11;;;;;;;8.20;4.62;;;;;;;-6.49;60.74;102814.83;1781320;80;26439;-63
2022/01/12 04:00:38;;;;;;;9.80;4.58;;;;;;;-6.52;60.54;102817.83;1781219;80;25477;-62
2022/01/12 04:03:07;;;;;;;10.90;5.53;;;;;;;-6.55;60.65;102809.51;1781287;79;27798;-63
2022/01/12 04:08:23;;;;;;;12.18;4.80;;;;;;;-6.56;60.83;102813.39;1781620;79;27427;-63
2022/01/12 04:11:00;;;;;;;12.55;6.08;;;;;;;-6.56;60.76;102815.60;1781400;80;25801;-63
2022/01/12 04:13:30;;;;;;;10.85;5.10;;;;;;;-6.56;60.97;102814.29;1781298;79;25800;-63
2022/01/12 04:16:05;;;;;;;10.65;4.58;;;;;;;-6.58;60.83;102823.85;1781625;80;25796;-63
2022/01/12 04:18:34;;;;;;;9.40;4.95;;;;;;;-6.62;60.92;102824.64;1781421;80;25840;-63
2022/01/12 04:21:04;;;;;;;10.90;5.22;;;;;;;-6.63;61.08;102823.78;1781571;80;27439;-64
2022/01/12 04:23:31;;;;;;;12.85;5.10;;;;;;;-6.63;61.19;102831.63;1781274;79;25717;-63
2022/01/12 04:26:01;;;;;;;10.80;4.53;;;;;;;-6.63;61.23;102834.25;1781634;79;25822;-64
2022/01/12 04:28:31;;;;;;;11.68;4.42;;;;;;;-6.60;61.40;102836.03;1781575;80;25800;-63
2022/01/12 04:31:05;;;;;;;8.18;4.47;;;;;;;-6.63;61.43;102838.59;1781566;80;25493;-64
2022/01/12 04:33:35;;;;;;;11.73;4.67;;;;;;;-6.73;61.54;102840.19;1778470;80;28290;-64
2022/01/12 04:36:04;;;;;;;7.05;4.25;;;;;;;-6.80;61.65;102839.63;1776300;80;25449;-64
2022/01/12 04:38:34;;;;;;;10.82;4.37;;;;;;;-6.87;61.81;102845.62;1754940;81;25686;-64
2022/01/12 04:41:06;;;;;;;10.18;5.03;;;;;;;-6.90;61.87;102843.81;1720684;83;25785;-64
2022/01/12 04:43:37;;;;;;;7.10;4.08;;;;;;;-6.92;61.95;102850.77;1715395;83;25794;-64
2022/01/12 04:51:11;;;;;;;13.72;4.00;;;;;;;-7.06;62.13;102845.30;1710155;82;25763;-64
2022/01/12 04:53:38;;;;;;;9.83;5.53;;;;;;;-7.12;62.15;102842.14;1662435;85;26609;-64
2022/01/12 04:56:07;;;;;;;10.72;4.62;;;;;;;-7.14;62.17;102852.98;1707344;83;25799;-64
2022/01/12 04:58:36;;;;;;;9.78;4.60;;;;;;;-7.16;62.22;102853.37;1670950;84;28197;-64
2022/01/12 05:01:08;;;;;;;12.93;5.97;;;;;;;-7.20;62.18;102862.04;1685916;84;25744;-64
2022/01/12 05:06:42;;;;;;;9.20;4.90;;;;;;;-7.34;62.15;102872.23;1703096;83;26557;-64
2022/01/12 05:09:27;;;;;;;10.93;5.03;;;;;;;-7.37;62.29;102872.60;1676946;84;25764;-64
2022/01/12 05:14:36;;;;;;;15.18;4.80;;;;;;;-7.42;62.36;102869.89;1701787;83;25823;-63
2022/01/12 05:16:57;;;;;;;5.40;3.25;;;;;;;-7.39;62.33;102876.47;1698327;83;25829;-63
2022/01/12 05:19:24;;;;;;;5.62;3.30;;;;;;;-7.41;62.29;102875.14;1694861;83;25856;-63
2022/01/12 05:21:52;;;;;;;11.63;5.37;;;;;;;-7.44;62.48;102880.30;1677828;85;25764;-64
2022/01/12 05:24:20;;;;;;;8.95;4.25;;;;;;;-7.46;62.38;102879.41;1702171;83;27527;-64
2022/01/12 05:26:50;;;;;;;9.18;4.03;;;;;;;-7.48;62.34;102881.52;1707802;83;25860;-63
2022/01/12 05:29:22;;;;;;;6.65;4.50;;;;;;;-7.46;62.39;102891.59;1698587;83;25736;-63
2022/01/12 05:31:49;;;;;;;5.78;3.83;;;;;;;-7.47;62.37;102888.10;1695254;83;25809;-63
2022/01/12 05:34:17;;;;;;;9.10;4.70;;;;;;;-7.49;62.32;102886.31;1699509;83;25760;-62
2022/01/12 05:36:45;;;;;;;7.65;4.40;;;;;;;-7.47;62.44;102897.66;1702997;83;27373;-63
2022/01/12 05:39:12;;;;;;;9.18;3.85;;;;;;;-7.48;62.35;102903.33;1706930;83;27187;-64
2022/01/12 05:41:38;;;;;;;15.18;5.47;;;;;;;-7.53;62.35;102908.91;1707085;83;25479;-64
2022/01/12 05:44:07;;;;;;;6.47;3.45;;;;;;;-7.57;62.17;102914.90;1698148;83;26446;-64
2022/01/12 05:46:41;;;;;;;8.53;4.10;;;;;;;-7.57;62.24;102916.20;1720317;82;25817;-64
2022/01/12 05:51:55;;;;;;;5.00;2.87;;;;;;;-7.66;61.85;102929.94;1765701;80;25519;-63
2022/01/12 05:54:23;;;;;;;7.67;3.22;;;;;;;-7.76;62.02;102928.00;1771886;80;25439;-63
2022/01/12 05:56:52;;;;;;;5.25;2.77;;;;;;;-7.83;61.99;102937.83;1769572;80;26486;-64
2022/01/12 05:59:21;;;;;;;4.55;2.50;;;;;;;-7.90;62.16;102951.20;1770987;81;25495;-64
2022/01/12 06:01:49;;;;;;;5.65;2.77;;;;;;;-7.94;62.05;102950.25;1740554;82;27532;-64
2022/01/12 06:04:16;;;;;;;11.95;3.87;;;;;;;-7.95;61.93;102948.48;1740091;82;25755;-63
2022/01/12 06:06:45;;;;;;;5.37;3.10;;;;;;;-7.98;62.06;102955.37;1748671;82;26624;-63
2022/01/12 06:09:14;;;;;;;5.00;3.20;;;;;;;-8.01;62.09;102956.15;1749803;82;26455;-63
2022/01/12 06:11:41;;;;;;;17.05;3.10;;;;;;;-8.00;62.32;102957.05;1737390;82;25839;-64
2022/01/12 06:14:10;;;;;;;11.38;3.37;;;;;;;-8.00;62.30;102955.30;1749936;81;27453;-62
2022/01/12 06:16:37;;;;;;;8.13;4.92;;;;;;;-7.97;62.35;102955.39;1765561;80;25742;-63
2022/01/12 06:19:04;;;;;;;4.47;3.05;;;;;;;-7.93;62.45;102957.21;1763111;81;25799;-62
2022/01/12 06:21:34;;;;;;;10.78;3.80;;;;;;;-7.90;62.47;102963.83;1757533;80;25886;-63
2022/01/12 06:24:04;;;;;;;5.97;3.83;;;;;;;-7.87;62.43;102967.83;1742844;81;25993;-63
2022/01/12 06:26:31;;;;;;;9.05;3.35;;;;;;;-7.82;62.34;102964.42;1754573;81;28148;-62
2022/01/12 06:31:44;;;;;;;5.37;2.95;;;;;;;-7.76;62.29;102973.30;1764953;81;25650;-64
2022/01/12 06:34:14;;;;;;;;;;;;;;;-7.72;62.13;102979.06;1714949;83;25810;-63
2022/01/12 06:36:41;;;;;;;5.50;2.70;;;;;;;-7.68;62.10;102979.12;1708333;84;25844;-64
2022/01/12 06:39:13;;;;;;;5.83;3.20;;;;;;;-7.65;62.08;102975.28;1706332;82;28178;-63
2022/01/12 06:41:44;;;;;;;7.62;3.40;;;;;;;-7.62;62.11;102976.23;1708497;83;26371;-62
2022/01/12 06:44:15;;;;;;;7.97;3.62;;;;;;;-7.57;62.21;102985.05;1711739;83;25776;-61
2022/01/12 06:46:44;;;;;;;11.35;5.45;;;;;;;-7.60;61.79;102982.37;1706975;83;25839;-63
2022/01/12 06:49:12;;;;;;;10.90;5.33;;;;;;;-7.73;61.92;102985.55;1657344;84;25905;-63
2022/01/12 06:51:41;;;;;;;6.28;4.08;;;;;;;-7.77;62.28;102978.50;1682607;83;28166;-63
2022/01/12 06:54:08;;;;;;;10.63;4.65;;;;;;;-7.78;63.01;102986.74;1674592;82;25761;-62
2022/01/12 06:56:40;;;;;;;9.10;4.15;;;;;;;-7.75;62.96;102978.09;1701243;82;25888;-63
2022/01/12 06:59:09;;;;;;;10.35;5.42;;;;;;;-7.67;63.16;102979.17;1739062;81;25800;-62
2022/01/12 07:01:36;;;;;;;7.83;3.92;;;;;;;-7.68;63.27;102980.42;1751356;81;26177;-62
2022/01/12 07:04:05;;;;;;;12.65;4.42;;;;;;;-7.65;63.32;102973.53;1748981;81;27459;-62
2022/01/12 07:06:32;;;;;;;9.48;4.75;;;;;;;-7.58;63.23;102981.09;1728196;82;25754;-62
2022/01/12 07:08:59;;;;;;;8.00;4.03;;;;;;;-7.52;63.04;102976.44;1744324;80;25702;-62
2022/01/12 07:11:42;;;;;;;7.35;4.20;;;;;;;-7.49;62.75;102980.44;1745543;81;27923;-63
2022/01/12 07:14:14;;;;;;;10.88;3.85;;;;;;;-7.42;62.79;102989.73;1744793;81;25798;-61
2022/01/12 07:16:43;;;;;;;10.45;4.70;;;;;;;-7.40;62.60;102988.05;1756032;80;28206;-63
2022/01/12 07:19:10;;;;;;;15.95;4.83;;;;;;;-7.44;62.38;102987.94;1753898;81;25759;-62
2022/01/12 07:21:38;;;;;;;7.70;4.62;;;;;;;-7.51;62.40;102975.59;1710796;83;25748;-62
2022/01/12 07:24:05;;;;;;;9.08;5.70;;;;;;;-7.43;62.70;102984.48;1701179;83;26619;-62
2022/01/12 07:26:34;;;;;;;17.50;5.40;;;;;;;-7.40;62.71;102984.56;1698655;84;25664;-62
2022/01/12 07:29:01;;;;;;;9.73;5.35;;;;;;;-7.34;62.73;102978.55;1702438;83;28154;-63
2022/01/12 07:31:28;;;;;;;15.18;5.00;;;;;;;-7.25;62.95;102979.65;1703178;83;25796;-63
2022/01/12 07:33:55;;;;;;;15.83;7.15;;;;;;;-7.09;63.13;102989.12;1702446;82;25751;-63
2022/01/12 07:36:27;;;;;;;20.37;8.10;;;;;;;-6.97;62.72;102984.15;1700147;84;25646;-63
2022/01/12 07:38:59;;;;;;;17.37;7.45;;;;;;;-6.84;62.76;102997.05;1694417;84;25792;-62
2022/01/12 07:41:29;;;;;;;20.25;5.83;;;;;;;-6.77;62.14;102987.59;1693666;83;27508;-62
2022/01/12 07:43:56;;;;;;;11.88;5.60;;;;;;;-6.74;61.58;102988.06;1685769;84;25556;-63
2022/01/12 07:46:26;;;;;;;11.90;5.42;;;;;;;-6.77;61.29;102983.66;1685814;84;25553;-63
2022/01/12 07:48:53;;;;;;;9.80;4.60;;;;;;;-6.77;61.37;102986.28;1686433;84;25794;-63
2022/01/12 07:51:21;;;;;;;14.50;5.28;;;;;;;-6.75;61.60;102993.71;1710193;83;25814;-63
2022/01/12 07:53:47;;;;;;;10.90;5.72;;;;;;;-6.73;61.53;102988.53;1710024;83;27477;-63
2022/01/12 07:56:14;;;;;;;12.30;5.25;;;;;;;-6.68;61.53;102997.34;1709895;83;25793;-63
2022/01/12 07:58:43;;;;;;;13.22;6.42;;;;;;;-6.65;61.32;103000.02;1710338;83;25729;-63
2022/01/12 08:01:12;;;;;;;11.35;6.60;;;;;;;-6.65;61.03;102997.41;1707039;82;25858;-62
2022/01/12 08:03:39;;;;;;;10.53;5.72;;;;;;;-6.63;60.78;103003.53;1710134;83;25769;-63
2022/01/12 08:06:06;;;;;;;13.68;7.42;;;;;;;-6.56;61.18;102992.75;1744325;82;28305;-63
2022/01/12 08:08:33;;;;;;;15.03;5.70;;;;;;;-6.41;60.97;102992.16;1709184;82;25724;-63
2022/01/12 08:11:02;;;;;;;8.78;5.22;;;;;;;-6.26;60.41;103001.58;1709806;81;25791;-62
2022/01/12 08:13:29;;;;;;;11.00;6.05;;;;;;;-6.12;60.00;103008.81;1708626;83;25834;-61
2022/01/12 08:15:56;;;;;;;12.70;6.03;;;;;;;-6.00;59.66;103005.97;1713691;82;25810;-63
2022/01/12 08:18:22;;;;;;;17.48;6.37;;;;;;;-5.91;58.96;103010.88;1703307;84;28204;-63
2022/01/12 08:20:50;;;;;;;24.80;7.72;;;;;;;-5.81;59.14;103016.72;1707222;83;25758;-62
2022/01/12 08:23:17;;;;;;;13.95;7.05;;;;;;;-5.71;59.27;103011.19;1728678;81;25547;-63
2022/01/12 08:25:45;;;;;;;17.92;8.05;;;;;;;-5.61;59.00;103013.53;1729370;80;25906;-63
2022/01/12 08:28:12;;;;;;;15.38;7.25;;;;;;;-5.59;58.27;103015.72;1710231;83;26341;-63
2022/01/12 08:30:39;;;;;;;21.50;6.58;;;;;;;-5.71;57.39;103010.77;1708473;83;27477;-63
2022/01/12 08:33:07;;;;;;;17.15;8.78;;;;;;;-5.69;57.84;103010.78;1711769;83;25723;-63
2022/01/12 08:35:34;;;;;;;13.25;7.00;;;;;;;-5.59;58.02;103011.80;1701484;83;25765;-63
2022/01/12 08:38:03;;;;;;;15.95;7.95;;;;;;;-5.15;57.93;103006.28;1697280;83;27868;-63
2022/01/12 08:40:30;;;;;;;13.68;7.20;;;;;;;-4.48;56.94;103005.77;1693325;83;25880;-63
2022/01/12 08:43:00;;;;;;;13.93;7.10;;;;;;;-3.68;54.58;103000.29;1702273;82;27579;-63
2022/01/12 08:45:29;;;;;;;16.30;7.45;;;;;;;-3.04;53.13;102996.27;1704476;83;25852;-63
2022/01/12 08:47:56;;;;;;;19.87;9.98;;;;;;;-2.38;52.24;102992.48;1709712;83;25798;-63
2022/01/12 08:50:26;;;;;;;23.30;10.95;;;;;;;-1.96;50.09;102992.94;1709189;82;25826;-63
2022/01/12 08:52:53;;;;;;;16.57;8.35;;;;;;;-1.78;48.52;102989.42;1716076;82;25488;-63
2022/01/12 08:55:23;;;;;;;13.90;7.75;;;;;;;-1.44;47.72;102989.36;1696287;84;27455;-63
2022/01/12 08:57:51;;;;;;;20.77;9.60;;;;;;;-0.98;48.47;102982.59;1696884;83;25727;-63
2022/01/12 09:00:19;;;;;;;16.20;8.60;;;;;;;-0.82;46.62;102979.44;1706002;83;25816;-63
2022/01/12 09:02:46;;;;;;;20.00;9.15;;;;;;;-0.50;46.37;102979.68;1718139;83;25844;-64
2022/01/12 09:05:15;;;;;;;18.15;8.58;;;;;;;0.01;46.38;102969.60;1750922;81;25864;-63
2022/01/12 09:07:43;;;;;;;25.05;10.38;;;;;;;0.50;45.92;102968.23;1752905;81;27462;-64
2022/01/12 09:10:12;;;;;;;16.45;9.68;;;;;;;0.59;42.70;102967.67;1740385;80;25806;-64
2022/01/12 09:12:39;;;;;;;14.70;7.50;;;;;;;1.03;45.07;102964.53;1697366;83;25682;-63
2022/01/12 09:15:13;;;;;;;16.70;8.98;;;;;;;1.13;41.96;102952.88;1744389;81;26018;-64
2022/01/12 09:17:46;;;;;;;15.10;8.40;;;;;;;1.09;41.55;102956.02;1741610;81;25733;-64
2022/01/12 09:20:14;;;;;;;18.90;8.60;;;;;;;1.04;40.75;102963.17;1709646;82;27496;-63
2022/01/12 09:22:41;;;;;;;18.77;8.05;;;;;;;1.03;40.65;102955.25;1739221;81;25648;-64
2022/01/12 09:25:10;;;;;;;17.65;7.95;;;;;;;1.08;40.83;102944.13;1738658;82;26435;-64
2022/01/12 09:27:40;;;;;;;15.03;7.95;;;;;;;1.58;41.38;102943.38;1739495;82;25751;-64
2022/01/12 09:30:12;;;;;;;15.32;7.80;;;;;;;1.64;40.40;102936.20;1747306;81;25829;-63
2022/01/12 09:32:39;;;;;;;22.02;9.00;;;;;;;1.90;40.23;102935.36;1762900;80;27486;-61
2022/01/12 09:35:10;;;;;;;13.62;7.60;;;;;;;1.88;39.01;102930.95;1746465;81;25554;-63
2022/01/12 09:37:38;;;;;;;17.37;10.25;;;;;;;1.94;40.47;102938.36;1744908;81;25731;-64
2022/01/12 09:40:08;;;;;;;17.77;9.50;;;;;;;2.11;39.54;102936.28;1746717;81;25881;-63
2022/01/12 09:42:35;;;;;;;14.68;7.85;;;;;;;2.32;40.57;102928.83;1745646;81;25693;-63
2022/01/12 09:45:06;;;;;;;12.93;6.45;;;;;;;2.94;40.49;102935.55;1745133;81;27827;-63
2022/01/12 09:47:34;;;;;;;13.38;5.92;;;;;;;3.43;40.40;102921.14;1745003;81;25806;-62
2022/01/12 09:50:02;;;;;;;10.58;5.92;;;;;;;3.91;39.40;102919.05;1746740;81;25807;-62
2022/01/12 09:52:29;;;;;;;11.12;5.83;;;;;;;4.23;40.68;102919.53;1735163;81;25780;-62
2022/01/12 09:54:56;;;;;;;9.00;5.67;;;;;;;4.91;36.70;102904.71;1733982;82;25805;-63
2022/01/12 09:57:23;;;;;;;10.10;5.85;;;;;;;4.84;36.53;102900.02;1725753;81;27501;-63
2022/01/12 09:59:50;;;;;;;10.35;4.97;;;;;;;4.93;35.84;102899.36;1742753;81;25819;-63
2022/01/12 10:02:19;;;;;;;9.25;4.65;;;;;;;4.98;37.54;102898.27;1720894;82;25726;-63
2022/01/12 10:04:50;;;;;;;10.15;4.17;;;;;;;5.40;34.83;102887.61;1733649;81;26412;-63
2022/01/12 10:07:21;;;;;;;8.10;4.20;;;;;;;5.23;34.13;102893.52;1753178;81;25540;-63
2022/01/12 10:09:53;;;;;;;9.23;3.15;;;;;;;5.25;34.29;102898.80;1754483;81;27866;-63
2022/01/12 10:12:26;;;;;;;5.15;3.47;;;;;;;5.31;32.50;102890.58;1720699;82;26212;-63
2022/01/12 10:15:00;;;;;;;6.53;3.17;;;;;;;5.33;33.82;102893.60;1740296;81;25729;-64
2022/01/12 10:17:34;;;;;;;7.70;2.87;;;;;;;5.43;33.78;102883.96;1742951;81;25777;-62
2022/01/12 10:20:21;;;;;;;5.35;3.17;;;;;;;5.59;32.99;102883.00;1743901;81;26103;-63
2022/01/12 10:23:06;;;;;;;10.08;4.12;;;;;;;5.57;33.00;102881.72;1742072;81;27469;-63
2022/01/12 10:25:34;;;;;;;16.12;4.28;;;;;;;6.07;31.52;102882.27;1731808;82;25968;-63
2022/01/12 10:28:20;;;;;;;5.22;2.90;;;;;;;6.24;32.55;102873.62;1714454;82;25888;-63
2022/01/12 10:31:01;;;;;;;8.25;3.62;;;;;;;6.36;30.32;102873.66;1734950;82;26189;-62
2022/01/12 10:33:33;;;;;;;23.92;4.33;;;;;;;5.69;31.24;102864.41;1736051;81;25713;-63
2022/01/12 10:36:10;;;;;;;7.10;3.33;;;;;;;5.88;30.25;102871.30;1761953;81;27493;-63
2022/01/12 10:38:35;;;;;;;8.08;3.33;;;;;;;5.80;31.95;102874.71;1761034;81;26303;-63
2022/01/12 10:41:05;;;;;;;4.95;2.65;;;;;;;6.11;30.74;102873.20;1761089;80;25771;-64
2022/01/12 10:43:44;;;;;;;5.37;2.72;;;;;;;6.15;30.61;102868.61;1743672;81;43779;-63
2022/01/12 10:46:15;;;;;;;6.17;3.02;;;;;;;6.30;29.83;102866.32;1758313;81;25919;-63
2022/01/12 10:48:50;;;;;;;6.33;2.98;;;;;;;6.56;30.61;102862.20;1739932;81;27322;-63
2022/01/12 10:51:25;;;;;;;5.28;2.50;;;;;;;6.78;30.22;102849.80;1759806;80;25494;-62
2022/01/12 10:53:56;;;;;;;3.70;2.33;;;;;;;6.75;30.02;102852.13;1768390;80;25722;-63
2022/01/12 10:56:24;;;;;;;5.33;2.50;;;;;;;6.67;29.53;102847.55;1744254;80;25793;-64
2022/01/12 10:58:55;;;;;;;13.22;3.17;;;;;;;6.87;29.77;102848.09;1746958;80;25855;-64
2022/01/12 11:01:26;;;;;;;6.47;2.80;;;;;;;7.13;31.05;102850.19;1757325;80;27706;-63
2022/01/12 11:03:56;;;;;;;5.35;2.75;;;;;;;7.51;29.91;102839.21;1784750;79;25635;-65
2022/01/12 11:06:26;;;;;;;9.58;2.35;;;;;;;7.58;29.10;102835.81;1758210;80;25700;-63
2022/01/12 11:08:53;;;;;;;10.45;2.62;;;;;;;7.82;28.81;102835.22;1746734;82;25974;-64
2022/01/12 11:11:21;;;;;;;6.55;2.37;;;;;;;7.59;28.77;102834.88;1749371;80;25527;-64
2022/01/12 11:13:52;;;;;;;6.12;3.10;;;;;;;7.04;27.96;102827.33;1745750;82;27273;-63
2022/01/12 11:16:29;;;;;;;5.03;2.60;;;;;;;6.62;28.71;102833.02;1753113;80;25727;-63
2022/01/12 11:18:59;;;;;;;11.90;2.60;;;;;;;6.89;28.08;102832.86;1760161;80;25706;-64
2022/01/12 11:21:42;;;;;;;4.97;2.22;;;;;;;7.14;29.47;102832.72;1751048;80;26435;-64
2022/01/12 11:24:14;;;;;;;7.97;2.60;;;;;;;7.34;28.63;102837.27;1747225;82;25748;-64
2022/01/12 11:26:53;;;;;;;10.45;2.75;;;;;;;7.57;28.38;102830.05;1746969;82;27555;-64
2022/01/12 11:29:34;;;;;;;4.55;2.17;;;;;;;7.94;27.17;102815.50;1746673;82;25625;-63
2022/01/12 11:32:13;;;;;;;5.42;2.80;;;;;;;7.78;27.74;102809.48;1747137;82;25499;-64
2022/01/12 11:34:41;;;;;;;7.10;2.95;;;;;;;7.95;28.32;102803.84;1746805;82;26145;-62
2022/01/12 11:37:18;;;;;;;8.00;2.83;;;;;;;7.59;27.61;102820.59;1747120;82;25884;-64
2022/01/12 11:39:49;;;;;;;9.85;2.60;;;;;;;7.47;27.06;102822.00;1745123;80;27460;-62
2022/01/12 11:42:17;;;;;;;4.85;1.87;;;;;;;7.12;29.43;102819.89;1749551;81;25750;-64
2022/01/12 11:44:45;;;;;;;10.55;2.50;;;;;;;6.70;27.71;102819.33;1749582;80;25937;-63
2022/01/12 11:47:21;;;;;;;9.80;2.22;;;;;;;5.75;27.91;102826.80;1744537;80;25791;-63
2022/01/12 11:49:47;;;;;;;4.80;2.08;;;;;;;5.00;28.36;102815.06;1744773;80;25655;-63
2022/01/12 11:52:18;;;;;;;6.65;2.45;;;;;;;4.17;29.60;102821.62;1746309;80;27470;-63
2022/01/12 11:54:47;;;;;;;8.50;2.90;;;;;;;3.47;30.71;102825.25;1747351;80;25828;-62
2022/01/12 11:57:20;;;;;;;4.22;2.27;;;;;;;2.89;31.33;102823.98;1738449;81;25775;-63
2022/01/12 11:59:55;;;;;;;7.97;2.53;;;;;;;2.55;32.17;102818.58;1742330;82;25861;-61
2022/01/12 12:02:42;;;;;;;5.50;2.05;;;;;;;2.40;32.36;102825.95;1743239;81;25794;-64
2022/01/12 12:05:20;;;;;;;4.65;1.70;;;;;;;2.01;32.98;102808.16;1733691;81;28222;-63
2022/01/12 12:07:54;;;;;;;5.97;1.80;;;;;;;1.68;33.25;102821.17;1707831;83;25828;-63
2022/01/12 12:10:26;;;;;;;10.80;2.12;;;;;;;1.29;34.07;102820.09;1707987;84;25759;-63
2022/01/12 12:12:57;;;;;;;6.53;1.85;;;;;;;1.17;34.32;102821.14;1707818;84;25786;-63
2022/01/12 12:15:25;;;;;;;8.15;1.98;;;;;;;1.14;34.66;102814.59;1714023;82;25709;-63
2022/01/12 12:17:55;;;;;;;10.58;2.15;;;;;;;0.85;35.00;102810.14;1743701;82;27451;-63
2022/01/12 12:20:24;;;;;;;2.30;1.25;;;;;;;0.72;34.73;102803.29;1733207;82;25985;-63
2022/01/12 12:22:53;;;;;;;5.33;1.70;;;;;;;0.40;34.91;102819.19;1708049;83;25712;-61
2022/01/12 12:25:25;;;;;;;7.28;1.60;;;;;;;0.21;35.25;102819.41;1708103;84;26613;-63
2022/01/12 12:27:56;;;;;;;4.95;1.57;;;;;;;0.06;35.14;102804.59;1710452;82;25696;-63
2022/01/12 12:30:26;;;;;;;5.60;1.60;;;;;;;0.01;35.48;102806.39;1707402;83;27452;-63
2022/01/12 12:33:10;;;;;;;6.97;1.60;;;;;;;0.01;36.12;102800.24;1707707;84;25951;-63
2022/01/12 12:35:38;;;;;;;7.37;2.42;;;;;;;-0.06;36.42;102794.13;1708140;84;25885;-62
2022/01/12 12:38:10;;;;;;;4.80;1.98;;;;;;;-0.16;36.77;102795.56;1710447;82;25943;-63
2022/01/12 12:40:41;;;;;;;12.95;1.87;;;;;;;-0.36;37.48;102802.84;1708233;82;25783;-61
2022/01/12 12:43:21;;;;;;;9.05;2.00;;;;;;;-0.57;37.44;102806.13;1710297;83;27574;-62
2022/01/12 12:45:57;;;;;;;3.40;1.77;;;;;;;-0.70;37.60;102800.06;1709875;83;26343;-64
2022/01/12 12:48:28;;;;;;;4.20;1.52;;;;;;;-0.91;37.50;102797.59;1714390;82;25909;-64
2022/01/12 12:51:13;;;;;;;5.75;1.32;;;;;;;-1.09;37.39;102804.77;1713822;82;25759;-63
2022/01/12 12:53:46;;;;;;;2.15;1.30;;;;;;;-1.26;37.50;102803.12;1730703;81;25907;-63